createdAt,value
2018-03-25T00:00:10.637Z,1.47
2018-03-25T00:02:36.850Z,1.40
2018-03-25T00:05:03.080Z,1.40
2018-03-25T00:07:29.348Z,1.70
2018-03-25T00:09:55.598Z,1.80
2018-03-25T00:12:21.799Z,1.70
2018-03-25T00:14:47.989Z,1.50
2018-03-25T00:17:21.374Z,1.40
2018-03-25T00:19:47.595Z,1.50
2018-03-25T00:22:13.778Z,1.60
2018-03-25T00:24:39.978Z,1.33
2018-03-25T00:27:06.337Z,1.60
2018-03-25T00:29:32.545Z,1.40
2018-03-25T00:31:58.733Z,1.50
2018-03-25T00:34:24.968Z,1.60
2018-03-25T00:36:51.225Z,1.97
2018-03-25T00:39:17.950Z,1.80
2018-03-25T00:41:44.174Z,1.50
2018-03-25T00:44:10.375Z,1.40
2018-03-25T00:46:36.621Z,1.67
2018-03-25T00:49:02.874Z,1.40
2018-03-25T00:51:29.407Z,1.77
2018-03-25T00:53:55.661Z,1.80
2018-03-25T00:56:22.019Z,1.50
2018-03-25T00:58:48.299Z,1.53
2018-03-25T01:01:14.534Z,1.60
2018-03-25T01:03:40.739Z,1.30
2018-03-25T01:06:06.942Z,1.80
2018-03-25T01:08:33.520Z,1.80
2018-03-25T01:10:59.713Z,1.40
2018-03-25T01:13:26.164Z,1.50
2018-03-25T01:16:04.684Z,1.50
2018-03-25T01:18:30.898Z,1.50
2018-03-25T01:20:57.085Z,1.57
2018-03-25T01:23:23.288Z,1.90
2018-03-25T01:25:49.538Z,1.40
2018-03-25T01:28:15.723Z,1.80
2018-03-25T01:30:42.265Z,1.57
2018-03-25T01:33:08.496Z,1.60
2018-03-25T01:35:35.032Z,1.87
2018-03-25T01:38:01.330Z,1.40
2018-03-25T01:40:27.892Z,1.67
2018-03-25T01:42:54.121Z,1.53
2018-03-25T01:45:20.337Z,1.70
2018-03-25T01:47:46.630Z,1.37
2018-03-25T01:50:12.804Z,1.67
2018-03-25T01:52:39.028Z,1.73
2018-03-25T01:55:05.272Z,1.60
2018-03-25T01:57:31.517Z,1.30
2018-03-25T01:59:57.696Z,1.50
2018-03-25T02:02:23.952Z,1.57
2018-03-25T02:04:50.179Z,1.73
2018-03-25T02:07:16.425Z,1.70
2018-03-25T02:09:42.649Z,1.40
2018-03-25T02:12:09.333Z,1.53
2018-03-25T02:14:35.912Z,1.40
2018-03-25T02:17:02.129Z,1.60
2018-03-25T02:19:28.781Z,1.60
2018-03-25T02:21:55.003Z,1.40
2018-03-25T02:24:21.278Z,1.30
2018-03-25T02:26:47.447Z,1.50
2018-03-25T02:29:13.879Z,1.60
2018-03-25T02:31:40.067Z,1.60
2018-03-25T02:34:06.259Z,1.70
2018-03-25T02:36:32.475Z,1.70
2018-03-25T02:38:58.732Z,1.70
2018-03-25T02:41:25.026Z,1.23
2018-03-25T02:43:51.573Z,1.70
2018-03-25T02:46:17.805Z,1.57
2018-03-25T02:48:44.324Z,1.50
2018-03-25T02:51:10.619Z,1.60
2018-03-25T02:53:36.797Z,1.57
2018-03-25T02:56:03.433Z,1.63
2018-03-25T02:58:29.671Z,1.90
2018-03-25T03:00:56.603Z,1.80
2018-03-25T03:03:22.833Z,1.50
2018-03-25T03:05:49.353Z,1.67
2018-03-25T03:08:15.604Z,2.10
2018-03-25T03:10:42.119Z,1.57
2018-03-25T03:13:08.285Z,1.50
2018-03-25T03:15:34.520Z,1.20
2018-03-25T03:18:00.741Z,1.30
2018-03-25T03:20:26.920Z,1.60
2018-03-25T03:22:53.137Z,1.47
2018-03-25T03:25:19.306Z,1.97
2018-03-25T03:27:45.816Z,1.70
2018-03-25T03:30:11.987Z,1.40
2018-03-25T03:32:38.471Z,1.30
2018-03-25T03:35:04.689Z,1.50
2018-03-25T03:37:31.014Z,1.80
2018-03-25T03:39:57.296Z,1.50
2018-03-25T03:42:23.482Z,1.50
2018-03-25T03:44:49.667Z,1.60
2018-03-25T03:47:15.909Z,1.40
2018-03-25T03:49:42.466Z,1.47
2018-03-25T03:52:08.639Z,1.40
2018-03-25T03:54:34.816Z,1.53
2018-03-25T03:57:01.031Z,1.37
2018-03-25T03:59:27.223Z,1.40
2018-03-25T04:01:53.744Z,1.37
2018-03-25T04:04:20.002Z,1.37
2018-03-25T04:06:46.213Z,1.40
2018-03-25T04:09:12.442Z,1.50
2018-03-25T04:11:38.708Z,1.57
2018-03-25T04:14:04.975Z,1.50
2018-03-25T04:16:31.155Z,1.60
2018-03-25T04:18:57.631Z,1.50
2018-03-25T04:21:23.862Z,1.60
2018-03-25T04:23:50.071Z,1.40
2018-03-25T04:26:16.279Z,1.40
2018-03-25T04:28:42.658Z,1.40
2018-03-25T04:31:08.877Z,1.80
2018-03-25T04:33:35.103Z,1.60
2018-03-25T04:36:01.346Z,1.20
2018-03-25T04:38:27.529Z,1.17
2018-03-25T04:40:53.787Z,1.50
2018-03-25T04:43:20.320Z,1.50
2018-03-25T04:45:46.482Z,1.50
2018-03-25T04:48:12.700Z,1.70
2018-03-25T04:50:38.887Z,1.63
2018-03-25T04:53:05.463Z,1.53
2018-03-25T04:55:31.649Z,1.47
2018-03-25T04:57:57.886Z,1.50
2018-03-25T05:00:24.194Z,1.70
2018-03-25T05:02:50.423Z,1.33
2018-03-25T05:05:16.600Z,1.57
2018-03-25T05:07:42.845Z,1.47
2018-03-25T05:10:09.106Z,1.73
2018-03-25T05:12:35.344Z,1.67
2018-03-25T05:15:01.571Z,1.30
2018-03-25T05:17:27.807Z,1.40
2018-03-25T05:19:54.073Z,1.43
2018-03-25T05:22:20.380Z,1.77
2018-03-25T05:24:46.615Z,1.60
2018-03-25T05:27:12.843Z,1.40
2018-03-25T05:29:39.056Z,1.57
2018-03-25T05:32:05.234Z,1.60
2018-03-25T05:34:31.514Z,1.70
2018-03-25T05:36:57.738Z,1.47
2018-03-25T05:39:24.179Z,1.57
2018-03-25T05:41:50.439Z,1.63
2018-03-25T05:44:16.707Z,1.40
2018-03-25T05:46:42.943Z,1.60
2018-03-25T05:49:09.124Z,1.60
2018-03-25T05:51:35.374Z,1.37
2018-03-25T05:54:02.149Z,1.30
2018-03-25T05:56:28.601Z,1.40
2018-03-25T05:59:02.263Z,1.50
2018-03-25T06:01:28.522Z,1.50
2018-03-25T06:03:55.078Z,1.30
2018-03-25T06:06:21.332Z,1.30
2018-03-25T06:08:47.949Z,1.20
2018-03-25T06:11:14.164Z,1.40
2018-03-25T06:13:40.346Z,1.50
2018-03-25T06:16:06.602Z,1.30
2018-03-25T06:18:32.916Z,1.40
2018-03-25T06:20:59.100Z,1.30
2018-03-25T06:23:25.416Z,1.17
2018-03-25T06:25:51.613Z,1.40
2018-03-25T06:28:17.805Z,1.27
2018-03-25T06:30:44.053Z,1.40
2018-03-25T06:33:10.519Z,1.27
2018-03-25T06:35:36.732Z,1.30
2018-03-25T06:38:03.302Z,1.30
2018-03-25T06:40:30.128Z,1.70
2018-03-25T06:42:56.309Z,1.70
2018-03-25T06:45:22.785Z,1.40
2018-03-25T06:47:49.314Z,1.43
2018-03-25T06:50:15.514Z,1.17
2018-03-25T06:52:41.983Z,1.40
2018-03-25T06:55:08.234Z,1.70
2018-03-25T06:57:34.447Z,1.40
2018-03-25T07:00:00.729Z,1.40
2018-03-25T07:02:26.912Z,1.23
2018-03-25T07:04:53.133Z,1.40
2018-03-25T07:07:19.396Z,1.50
2018-03-25T07:09:45.690Z,1.40
2018-03-25T07:12:12.232Z,1.63
2018-03-25T07:14:38.469Z,1.60
2018-03-25T07:17:04.726Z,1.57
2018-03-25T07:19:30.950Z,1.43
2018-03-25T07:21:57.212Z,1.50
2018-03-25T07:24:23.430Z,1.30
2018-03-25T07:26:50.011Z,1.20
2018-03-25T07:29:16.232Z,1.50
2018-03-25T07:31:42.471Z,1.70
2018-03-25T07:34:09.013Z,1.67
2018-03-25T07:36:35.289Z,1.20
2018-03-25T07:39:01.759Z,1.60
2018-03-25T07:41:27.972Z,1.50
2018-03-25T07:43:54.515Z,1.50
2018-03-25T07:46:20.775Z,1.20
2018-03-25T07:48:47.002Z,1.37
2018-03-25T07:51:13.278Z,1.47
2018-03-25T07:53:39.851Z,1.50
2018-03-25T07:56:06.145Z,1.30
2018-03-25T07:58:32.719Z,1.60
2018-03-25T08:00:58.923Z,1.37
2018-03-25T08:03:25.260Z,1.40
2018-03-25T08:05:51.503Z,1.40
2018-03-25T08:08:17.697Z,1.37
2018-03-25T08:10:43.949Z,1.30
2018-03-25T08:13:10.225Z,1.30
2018-03-25T08:15:36.469Z,1.60
2018-03-25T08:18:02.779Z,1.40
2018-03-25T08:20:29.339Z,1.40
2018-03-25T08:22:55.571Z,1.30
2018-03-25T08:25:21.888Z,1.53
2018-03-25T08:27:48.142Z,1.20
2018-03-25T08:30:14.711Z,1.40
2018-03-25T08:32:40.917Z,1.30
2018-03-25T08:35:07.171Z,1.47
2018-03-25T08:37:33.412Z,1.50
2018-03-25T08:39:59.704Z,1.60
2018-03-25T08:42:25.875Z,1.37
2018-03-25T08:44:52.056Z,1.50
2018-03-25T08:47:18.268Z,1.60
2018-03-25T08:49:44.533Z,1.40
2018-03-25T08:52:11.501Z,1.40
2018-03-25T08:54:38.011Z,1.50
2018-03-25T08:57:04.217Z,1.70
2018-03-25T08:59:30.526Z,1.63
2018-03-25T09:01:57.213Z,1.77
2018-03-25T09:04:23.458Z,1.60
2018-03-25T09:06:49.730Z,1.60
2018-03-25T09:09:15.986Z,1.60
2018-03-25T09:11:42.228Z,1.80
2018-03-25T09:14:08.817Z,1.90
2018-03-25T09:16:35.009Z,1.30
2018-03-25T09:19:01.523Z,1.73
2018-03-25T09:21:27.731Z,1.47
2018-03-25T09:23:53.948Z,1.87
2018-03-25T09:26:20.217Z,1.30
2018-03-25T09:28:46.445Z,1.50
2018-03-25T09:31:12.774Z,1.53
2018-03-25T09:33:38.956Z,1.57
2018-03-25T09:36:05.174Z,1.30
2018-03-25T09:38:31.744Z,1.60
2018-03-25T09:40:57.988Z,1.20
2018-03-25T09:43:24.510Z,1.57
2018-03-25T09:45:50.821Z,1.43
2018-03-25T09:48:16.998Z,1.37
2018-03-25T09:50:43.510Z,1.53
2018-03-25T09:53:16.780Z,1.60
2018-03-25T09:55:43.016Z,1.40
2018-03-25T09:58:09.570Z,1.50
2018-03-25T10:00:36.650Z,1.20
2018-03-25T10:05:58.382Z,1.50
2018-03-25T10:08:24.684Z,1.90
2018-03-25T10:10:50.877Z,1.50
2018-03-25T10:13:17.341Z,1.40
2018-03-25T10:15:43.577Z,1.40
2018-03-25T10:18:09.941Z,1.33
2018-03-25T10:20:36.133Z,1.50
2018-03-25T10:23:02.404Z,1.33
2018-03-25T10:25:28.640Z,1.43
2018-03-25T10:27:55.115Z,1.70
2018-03-25T10:30:21.301Z,1.67
2018-03-25T10:32:47.488Z,1.43
2018-03-25T10:35:13.757Z,1.40
2018-03-25T10:37:40.235Z,1.70
2018-03-25T10:40:06.599Z,1.67
2018-03-25T10:42:32.796Z,1.37
2018-03-25T10:44:59.078Z,1.63
2018-03-25T10:47:25.273Z,1.33
2018-03-25T10:49:51.507Z,1.17
2018-03-25T10:52:17.758Z,1.17
2018-03-25T10:54:43.944Z,1.30
2018-03-25T10:57:10.161Z,1.50
2018-03-25T10:59:36.398Z,1.60
2018-03-25T11:02:02.689Z,1.47
2018-03-25T11:04:29.270Z,1.27
2018-03-25T11:06:55.486Z,1.47
2018-03-25T11:09:21.723Z,1.50
2018-03-25T11:11:47.950Z,1.70
2018-03-25T11:14:14.152Z,1.63
2018-03-25T11:16:40.370Z,1.37
2018-03-25T11:19:06.639Z,1.70
2018-03-25T11:21:32.861Z,1.37
2018-03-25T11:23:59.160Z,1.30
2018-03-25T11:26:25.354Z,1.43
2018-03-25T11:28:51.606Z,1.37
2018-03-25T11:31:17.801Z,1.60
2018-03-25T11:33:44.047Z,1.40
2018-03-25T11:36:10.334Z,1.50
2018-03-25T11:38:36.860Z,1.47
2018-03-25T11:41:03.397Z,1.53
2018-03-25T11:43:29.634Z,1.30
2018-03-25T11:45:55.868Z,1.60
2018-03-25T11:48:22.115Z,1.70
2018-03-25T11:50:48.728Z,1.40
2018-03-25T11:53:14.993Z,1.53
2018-03-25T11:55:41.483Z,1.70
2018-03-25T11:58:07.700Z,1.50
2018-03-25T12:00:33.885Z,1.30
2018-03-25T12:03:00.213Z,1.70
2018-03-25T12:05:26.414Z,1.30
2018-03-25T12:07:53.030Z,1.70
2018-03-25T12:10:19.229Z,1.20
2018-03-25T12:12:45.421Z,1.50
2018-03-25T12:15:11.686Z,1.43
2018-03-25T12:17:38.149Z,1.27
2018-03-25T12:20:04.377Z,1.33
2018-03-25T12:22:30.581Z,1.40
2018-03-25T12:24:56.826Z,1.30
2018-03-25T12:27:23.017Z,1.63
2018-03-25T12:29:49.616Z,1.50
2018-03-25T12:32:16.142Z,1.60
2018-03-25T12:34:42.686Z,1.70
2018-03-25T12:37:08.937Z,1.43
2018-03-25T12:39:35.157Z,1.23
2018-03-25T12:42:01.400Z,1.60
2018-03-25T12:44:27.666Z,1.30
2018-03-25T12:46:53.847Z,1.20
2018-03-25T12:49:20.069Z,1.50
2018-03-25T12:51:46.302Z,1.50
2018-03-25T12:54:12.561Z,1.73
2018-03-25T12:56:38.793Z,1.93
2018-03-25T12:59:04.972Z,1.40
2018-03-25T13:01:31.199Z,1.67
2018-03-25T13:03:57.504Z,1.50
2018-03-25T13:06:23.948Z,1.40
2018-03-25T13:08:50.203Z,1.57
2018-03-25T13:11:16.401Z,1.83
2018-03-25T13:13:42.634Z,1.40
2018-03-25T13:16:09.171Z,1.40
2018-03-25T13:18:35.758Z,1.50
2018-03-25T13:21:01.941Z,1.60
2018-03-25T13:23:28.179Z,1.40
2018-03-25T13:25:54.438Z,1.50
2018-03-25T13:28:20.675Z,1.53
2018-03-25T13:30:47.966Z,1.40
2018-03-25T13:33:14.199Z,1.50
2018-03-25T13:35:40.434Z,1.40
2018-03-25T13:38:06.966Z,1.60
2018-03-25T13:40:33.257Z,1.40
2018-03-25T13:42:59.716Z,1.40
2018-03-25T13:45:25.912Z,1.40
2018-03-25T13:47:52.195Z,1.53
2018-03-25T13:50:18.432Z,1.33
2018-03-25T13:52:44.628Z,1.87
2018-03-25T13:55:10.894Z,1.20
2018-03-25T13:57:37.080Z,1.37
2018-03-25T14:00:03.385Z,1.37
2018-03-25T14:02:29.660Z,1.70
2018-03-25T14:04:56.019Z,1.20
2018-03-25T14:07:22.239Z,1.10
2018-03-25T14:09:48.422Z,1.30
2018-03-25T14:12:14.627Z,1.47
2018-03-25T14:14:41.101Z,1.43
2018-03-25T14:17:07.400Z,1.40
2018-03-25T14:19:33.584Z,1.50
2018-03-25T14:21:59.774Z,1.50
2018-03-25T14:24:26.034Z,1.50
2018-03-25T14:26:52.541Z,1.20
2018-03-25T14:29:18.798Z,1.33
2018-03-25T14:31:45.001Z,1.50
2018-03-25T14:34:11.546Z,1.43
2018-03-25T14:36:37.860Z,1.67
2018-03-25T14:39:04.212Z,1.40
2018-03-25T14:41:30.550Z,1.53
2018-03-25T14:43:56.709Z,1.40
2018-03-25T14:46:23.188Z,1.30
2018-03-25T14:48:49.397Z,1.50
2018-03-25T14:51:16.364Z,1.43
2018-03-25T14:53:42.560Z,1.60
2018-03-25T14:56:08.786Z,1.30
2018-03-25T14:58:34.996Z,1.40
2018-03-25T15:01:01.492Z,1.17
2018-03-25T15:03:28.027Z,1.37
2018-03-25T15:05:54.310Z,1.50
2018-03-25T15:08:20.537Z,1.40
2018-03-25T15:10:47.218Z,1.20
2018-03-25T15:13:13.409Z,1.40
2018-03-25T15:15:39.619Z,1.60
2018-03-25T15:18:05.857Z,1.30
2018-03-25T15:20:32.089Z,1.30
2018-03-25T15:22:58.672Z,1.40
2018-03-25T15:25:25.158Z,1.50
2018-03-25T15:27:51.416Z,1.40
2018-03-25T15:30:17.666Z,1.40
2018-03-25T15:32:44.186Z,1.47
2018-03-25T15:35:10.421Z,1.43
2018-03-25T15:37:36.942Z,1.50
2018-03-25T15:40:03.168Z,1.93
2018-03-25T15:42:29.397Z,1.43
2018-03-25T15:44:55.614Z,1.40
2018-03-25T15:47:21.867Z,1.30
2018-03-25T15:49:48.119Z,1.50
2018-03-25T15:52:14.384Z,1.40
2018-03-25T15:54:40.613Z,1.60
2018-03-25T15:57:06.892Z,1.50
2018-03-25T15:59:33.073Z,1.43
2018-03-25T16:01:59.352Z,1.57
2018-03-25T16:04:25.640Z,1.30
2018-03-25T16:06:51.839Z,1.40
2018-03-25T16:09:18.077Z,1.47
2018-03-25T16:11:51.337Z,1.60
2018-03-25T16:14:17.612Z,1.40
2018-03-25T16:16:44.178Z,1.53
2018-03-25T16:19:10.434Z,1.70
2018-03-25T16:21:36.696Z,1.40
2018-03-25T16:24:02.991Z,1.93
2018-03-25T16:26:29.238Z,1.60
2018-03-25T16:28:55.837Z,1.70
2018-03-25T16:31:22.062Z,1.40
2018-03-25T16:33:48.360Z,1.60
2018-03-25T16:36:14.560Z,1.63
2018-03-25T16:38:40.816Z,2.10
2018-03-25T16:43:39.962Z,1.40
2018-03-25T16:46:06.168Z,1.70
2018-03-25T16:48:32.402Z,2.07
2018-03-25T16:50:58.649Z,1.50
2018-03-25T16:53:24.854Z,1.53
2018-03-25T16:55:51.112Z,1.60
2018-03-25T16:58:17.643Z,1.57
2018-03-25T17:00:44.168Z,1.67
2018-03-25T17:03:10.434Z,1.50
2018-03-25T17:05:36.642Z,1.80
2018-03-25T17:08:02.886Z,1.60
2018-03-25T17:10:29.169Z,1.50
2018-03-25T17:12:55.621Z,1.30
2018-03-25T17:15:21.874Z,1.80
2018-03-25T17:17:48.042Z,1.60
2018-03-25T17:20:14.251Z,1.67
2018-03-25T17:22:40.422Z,1.53
2018-03-25T17:25:06.631Z,1.63
2018-03-25T17:27:32.862Z,2.00
2018-03-25T17:29:59.119Z,1.83
2018-03-25T17:32:25.337Z,1.63
2018-03-25T17:34:51.561Z,1.57
2018-03-25T17:37:17.993Z,1.70
2018-03-25T17:39:44.248Z,1.50
2018-03-25T17:42:10.428Z,2.00
2018-03-25T17:44:36.705Z,1.97
2018-03-25T17:47:02.901Z,1.60
2018-03-25T17:49:29.111Z,1.83
2018-03-25T17:51:55.380Z,1.80
2018-03-25T17:54:21.592Z,1.93
2018-03-25T17:56:47.847Z,1.77
2018-03-25T17:59:14.041Z,1.90
2018-03-25T18:01:40.290Z,1.30
2018-03-25T18:04:06.472Z,2.00
2018-03-25T18:06:33.164Z,1.87
2018-03-25T18:08:59.678Z,1.50
2018-03-25T18:11:25.872Z,1.60
2018-03-25T18:13:52.345Z,1.50
2018-03-25T18:16:18.575Z,2.07
2018-03-25T18:18:44.853Z,1.83
2018-03-25T18:21:11.048Z,1.43
2018-03-25T18:23:37.272Z,1.43
2018-03-25T18:26:03.542Z,1.67
2018-03-25T18:28:29.779Z,2.17
2018-03-25T18:30:56.091Z,1.50
2018-03-25T18:33:28.432Z,1.80
2018-03-25T18:35:55.061Z,1.90
2018-03-25T18:38:21.277Z,1.60
2018-03-25T18:40:47.534Z,2.00
2018-03-25T18:43:13.752Z,1.60
2018-03-25T18:45:39.973Z,1.87
2018-03-25T18:48:06.501Z,1.73
2018-03-25T18:50:32.734Z,1.80
2018-03-25T18:52:59.266Z,1.43
2018-03-25T18:55:25.476Z,2.10
2018-03-25T18:57:51.660Z,1.70
2018-03-25T19:00:17.874Z,1.63
2018-03-25T19:02:44.058Z,1.97
2018-03-25T19:05:10.264Z,2.23
2018-03-25T19:07:36.731Z,1.90
2018-03-25T19:10:02.957Z,1.50
2018-03-25T19:12:29.198Z,1.83
2018-03-25T19:14:55.403Z,1.93
2018-03-25T19:17:21.690Z,1.60
2018-03-25T19:19:47.923Z,1.80
2018-03-25T19:22:14.423Z,1.67
2018-03-25T19:24:40.715Z,1.60
2018-03-25T19:27:06.963Z,1.60
2018-03-25T19:29:33.222Z,1.77
2018-03-25T19:31:59.410Z,1.67
2018-03-25T19:34:25.653Z,1.67
2018-03-25T19:36:51.879Z,2.00
2018-03-25T19:39:18.434Z,2.10
2018-03-25T19:41:44.956Z,1.97
2018-03-25T19:44:11.185Z,1.80
2018-03-25T19:46:37.435Z,1.97
2018-03-25T19:49:03.684Z,2.13
2018-03-25T19:51:30.697Z,2.00
2018-03-25T19:53:57.235Z,1.80
2018-03-25T19:56:23.457Z,1.67
2018-03-25T19:58:49.659Z,1.90
2018-03-25T20:01:16.109Z,1.87
2018-03-25T20:03:42.700Z,1.93
2018-03-25T20:06:08.954Z,2.20
2018-03-25T20:08:35.622Z,1.90
2018-03-25T20:11:01.849Z,1.90
2018-03-25T20:13:28.048Z,1.90
2018-03-25T20:15:54.538Z,2.20
2018-03-25T20:18:20.746Z,2.00
2018-03-25T20:20:47.379Z,1.77
2018-03-25T20:23:13.572Z,1.87
2018-03-25T20:25:39.753Z,1.67
2018-03-25T20:28:06.062Z,1.80
2018-03-25T20:30:32.214Z,1.80
2018-03-25T20:32:58.727Z,1.77
2018-03-25T20:35:24.952Z,2.33
2018-03-25T20:37:51.183Z,2.20
2018-03-25T20:40:17.393Z,1.77
2018-03-25T20:42:43.605Z,2.00
2018-03-25T20:45:09.816Z,1.60
2018-03-25T20:47:36.018Z,2.13
2018-03-25T20:50:02.247Z,2.03
2018-03-25T20:52:28.428Z,1.57
2018-03-25T20:54:54.659Z,2.10
2018-03-25T20:57:20.872Z,1.77
2018-03-25T20:59:47.053Z,1.97
2018-03-25T21:02:13.264Z,1.80
2018-03-25T21:04:39.456Z,1.60
2018-03-25T21:07:05.728Z,1.80
2018-03-25T21:09:31.908Z,1.97
2018-03-25T21:11:58.137Z,2.07
2018-03-25T21:14:24.355Z,1.80
2018-03-25T21:16:50.669Z,1.70
2018-03-25T21:19:16.894Z,2.00
2018-03-25T21:21:43.150Z,2.40
2018-03-25T21:24:09.421Z,1.80
2018-03-25T21:26:35.715Z,1.70
2018-03-25T21:29:01.935Z,1.50
2018-03-25T21:31:28.498Z,1.83
2018-03-25T21:33:54.675Z,1.70
2018-03-25T21:36:21.271Z,2.10
2018-03-25T21:38:47.536Z,2.00
2018-03-25T21:41:13.832Z,1.60
2018-03-25T21:43:40.068Z,2.10
2018-03-25T21:46:06.595Z,1.90
2018-03-25T21:48:32.846Z,2.20
2018-03-25T21:50:59.078Z,1.80
2018-03-25T21:53:25.330Z,2.03
2018-03-25T21:55:51.619Z,1.80
2018-03-25T21:58:17.852Z,2.30
2018-03-25T22:00:44.050Z,2.40
2018-03-25T22:03:10.269Z,2.23
2018-03-25T22:05:36.480Z,2.17
2018-03-25T22:08:02.706Z,2.00
2018-03-25T22:10:28.957Z,1.90
2018-03-25T22:12:55.187Z,2.33
2018-03-25T22:15:21.742Z,2.30
2018-03-25T22:17:47.937Z,2.07
2018-03-25T22:20:14.149Z,2.10
2018-03-25T22:22:40.418Z,3.00
2018-03-25T22:25:06.615Z,2.20
2018-03-25T22:27:32.916Z,3.00
2018-03-25T22:29:59.128Z,2.23
2018-03-25T22:32:25.412Z,3.00
2018-03-25T22:34:51.637Z,2.27
2018-03-25T22:37:17.811Z,2.40
2018-03-25T22:39:44.021Z,2.10
2018-03-25T22:42:10.193Z,2.40
2018-03-25T22:44:36.398Z,2.60
2018-03-25T22:47:02.583Z,2.03
2018-03-25T22:49:28.816Z,1.83
2018-03-25T22:51:55.074Z,2.47
2018-03-25T22:54:21.688Z,3.10
2018-03-25T22:56:47.994Z,2.73
2018-03-25T22:59:14.168Z,2.40
2018-03-25T23:01:40.368Z,2.70
2018-03-25T23:04:06.586Z,2.03
2018-03-25T23:06:33.238Z,2.47
2018-03-25T23:08:59.480Z,2.40
2018-03-25T23:11:25.668Z,3.20
2018-03-25T23:13:51.939Z,2.33
2018-03-25T23:16:18.129Z,2.67
2018-03-25T23:18:44.338Z,2.20
2018-03-25T23:21:10.517Z,2.43
2018-03-25T23:23:36.775Z,2.63
2018-03-25T23:26:03.005Z,2.60
2018-03-25T23:28:29.231Z,2.40
2018-03-25T23:30:55.825Z,2.47
2018-03-25T23:33:22.054Z,3.00
2018-03-25T23:35:48.240Z,2.83
2018-03-25T23:38:14.504Z,2.17
2018-03-25T23:40:40.916Z,2.60
2018-03-25T23:43:07.199Z,3.10
2018-03-25T23:45:33.425Z,2.90
2018-03-25T23:47:59.605Z,2.77
2018-03-25T23:50:25.780Z,2.40
2018-03-25T23:52:51.974Z,2.80
2018-03-25T23:55:18.184Z,2.30
2018-03-25T23:57:44.413Z,2.80
